Time;durP1;ratioP1;P1;durP2;ratioP2;P2;SDS_P1;SDS_P2;PMS_P1;PMS_P2;Temp;Humidity;BMP_temperature;BMP_pressure;BME280_temperature;BME280_humidity;BME280_pressure;Samples;Min_cycle;Max_cycle;Signal;HPM_P1;HPM_P2
2021/09/07 00:00:19;;;;;;;13.95;12.70;;;13.80;77.30;;;;;;4889245;30;20638;-75
2021/09/07 00:02:51;;;;;;;13.80;12.68;;;13.80;77.60;;;;;;4889387;30;20149;-75
2021/09/07 00:05:26;;;;;;;14.35;12.98;;;13.80;78.10;;;;;;4902180;30;20057;-75
2021/09/07 00:07:58;;;;;;;14.38;13.18;;;13.70;77.40;;;;;;4887202;30;20168;-75
2021/09/07 00:10:30;;;;;;;14.43;13.15;;;13.70;77.20;;;;;;4887771;30;20143;-75
2021/09/07 00:13:03;;;;;;;13.48;12.27;;;13.70;77.60;;;;;;4901485;30;20061;-75
2021/09/07 00:15:39;;;;;;;13.80;12.70;;;13.70;77.30;;;;;;4888584;30;20564;-75
2021/09/07 00:18:11;;;;;;;13.32;12.20;;;13.70;77.00;;;;;;4885983;30;20057;-75
2021/09/07 00:20:43;;;;;;;13.65;12.45;;;13.70;77.10;;;;;;4888458;30;20167;-75
2021/09/07 00:23:15;;;;;;;13.60;12.27;;;13.70;77.60;;;;;;4887973;30;20057;-75
2021/09/07 00:25:47;;;;;;;13.65;12.45;;;13.70;77.20;;;;;;4887092;30;20056;-75
2021/09/07 00:28:19;;;;;;;13.95;12.63;;;13.60;77.60;;;;;;4887633;30;20491;-74
2021/09/07 00:30:51;;;;;;;14.13;12.82;;;13.60;78.40;;;;;;4886689;30;20114;-75
2021/09/07 00:33:22;;;;;;;14.32;13.02;;;13.50;79.20;;;;;;4887120;30;20059;-75
2021/09/07 00:35:55;;;;;;;14.10;12.90;;;13.50;78.50;;;;;;4884567;30;20065;-75
2021/09/07 00:38:26;;;;;;;13.48;12.30;;;13.50;79.50;;;;;;4887455;30;20057;-75
2021/09/07 00:40:58;;;;;;;14.27;13.02;;;13.40;79.50;;;;;;4887709;30;20514;-75
2021/09/07 00:43:30;;;;;;;14.13;12.93;;;13.40;79.90;;;;;;4889363;30;20479;-74
2021/09/07 00:46:02;;;;;;;14.50;13.25;;;13.40;80.00;;;;;;4885573;30;20909;-73
2021/09/07 00:48:34;;;;;;;14.02;12.82;;;13.40;79.80;;;;;;4887682;30;20160;-74
2021/09/07 00:51:06;;;;;;;14.07;12.90;;;13.40;80.10;;;;;;4887545;30;20071;-74
2021/09/07 00:53:39;;;;;;;14.30;13.00;;;13.30;80.10;;;;;;4886525;30;20098;-73
2021/09/07 00:56:12;;;;;;;13.20;12.10;;;13.40;79.50;;;;;;4886061;30;20045;-74
2021/09/07 00:58:45;;;;;;;13.35;12.15;;;13.40;79.80;;;;;;4886476;30;20045;-74
2021/09/07 01:01:17;;;;;;;14.45;13.15;;;13.40;79.90;;;;;;4886738;30;20206;-74
2021/09/07 01:03:51;;;;;;;14.57;13.38;;;13.30;79.60;;;;;;4888052;30;20094;-74
2021/09/07 01:06:24;;;;;;;13.68;12.48;;;13.40;79.70;;;;;;4885611;30;20052;-73
2021/09/07 01:08:57;;;;;;;14.52;13.27;;;13.40;79.50;;;;;;4871133;30;20595;-73
2021/09/07 01:11:30;;;;;;;14.20;12.90;;;13.30;79.50;;;;;;4884153;30;20049;-73
2021/09/07 01:14:02;;;;;;;14.00;12.80;;;13.30;79.70;;;;;;4885119;30;20064;-73
2021/09/07 01:16:36;;;;;;;13.40;12.30;;;13.30;80.10;;;;;;4886905;30;20575;-74
2021/09/07 01:19:08;;;;;;;14.73;13.52;;;13.30;80.30;;;;;;4888854;30;20083;-73
2021/09/07 01:21:40;;;;;;;13.80;12.60;;;13.30;80.70;;;;;;4887791;30;20071;-74
2021/09/07 01:24:12;;;;;;;14.95;13.57;;;13.20;80.70;;;;;;4887664;30;20486;-72
2021/09/07 01:26:44;;;;;;;14.90;13.70;;;13.20;80.70;;;;;;4887462;30;20048;-73
2021/09/07 01:29:16;;;;;;;15.00;13.82;;;13.20;80.70;;;;;;4886470;30;20149;-73
2021/09/07 01:31:51;;;;;;;14.45;13.25;;;13.20;81.00;;;;;;4887582;30;20699;-72
2021/09/07 01:34:23;;;;;;;14.60;13.40;;;13.20;80.90;;;;;;4888014;30;20147;-74
2021/09/07 01:36:56;;;;;;;14.95;13.75;;;13.20;81.20;;;;;;4888378;30;20048;-72
2021/09/07 01:39:28;;;;;;;13.98;12.88;;;13.20;81.00;;;;;;4886880;30;20587;-73
2021/09/07 01:42:00;;;;;;;15.40;14.05;;;13.20;80.50;;;;;;4887317;30;20929;-73
2021/09/07 01:44:32;;;;;;;14.70;13.50;;;13.30;80.00;;;;;;4885863;30;20078;-73
2021/09/07 01:47:08;;;;;;;14.95;13.65;;;13.20;79.70;;;;;;4885208;30;20176;-73
2021/09/07 01:49:40;;;;;;;14.48;13.38;;;13.20;79.60;;;;;;4888034;30;20496;-73
2021/09/07 01:52:14;;;;;;;14.55;13.35;;;13.20;79.80;;;;;;4888129;30;20147;-72
2021/09/07 01:54:47;;;;;;;15.55;14.10;;;13.10;79.30;;;;;;4885177;30;20579;-73
2021/09/07 01:57:20;;;;;;;15.48;14.15;;;13.10;79.40;;;;;;4899626;30;20068;-73
2021/09/07 01:59:53;;;;;;;15.50;14.10;;;13.10;79.30;;;;;;4886291;30;20106;-73
2021/09/07 02:02:26;;;;;;;14.63;13.32;;;13.00;79.50;;;;;;4885478;30;20056;-74
2021/09/07 02:05:00;;;;;;;14.50;13.30;;;13.00;79.90;;;;;;4882682;30;20068;-73
2021/09/07 02:07:33;;;;;;;14.70;13.50;;;13.00;79.30;;;;;;4885578;30;20065;-72
2021/09/07 02:10:06;;;;;;;15.20;13.85;;;13.00;79.00;;;;;;4887718;30;20056;-72
2021/09/07 02:12:40;;;;;;;14.60;13.40;;;13.00;79.80;;;;;;4885064;30;20067;-74
2021/09/07 02:15:13;;;;;;;15.02;13.60;;;12.90;79.80;;;;;;4884694;30;20057;-73
2021/09/07 02:17:45;;;;;;;15.48;14.15;;;12.80;80.40;;;;;;4886065;30;20045;-73
2021/09/07 02:20:17;;;;;;;15.35;13.85;;;12.70;81.00;;;;;;4886515;30;20056;-73
2021/09/07 02:22:49;;;;;;;14.98;13.57;;;12.70;81.10;;;;;;4886537;30;20044;-73
2021/09/07 02:25:25;;;;;;;14.77;13.45;;;12.70;80.10;;;;;;4898898;30;20053;-74
2021/09/07 02:28:02;;;;;;;14.60;13.40;;;12.70;80.40;;;;;;4884812;30;20045;-73
2021/09/07 02:30:35;;;;;;;13.90;12.70;;;12.70;81.30;;;;;;4897707;30;20155;-74
2021/09/07 02:33:09;;;;;;;14.50;13.23;;;12.70;81.10;;;;;;4886105;30;20080;-73
2021/09/07 02:35:41;;;;;;;14.77;13.38;;;12.70;81.70;;;;;;4885537;30;20797;-74
2021/09/07 02:38:13;;;;;;;14.38;13.18;;;12.60;80.50;;;;;;4886362;30;20060;-73
2021/09/07 02:40:45;;;;;;;14.55;13.27;;;12.60;80.20;;;;;;4882374;30;20136;-73
2021/09/07 02:43:18;;;;;;;13.90;12.60;;;12.50;80.50;;;;;;4887670;30;20409;-73
2021/09/07 02:45:50;;;;;;;13.80;12.60;;;12.50;80.90;;;;;;4888264;30;20048;-74
2021/09/07 02:48:23;;;;;;;13.90;12.70;;;12.50;81.10;;;;;;4886363;30;20070;-73
2021/09/07 02:50:56;;;;;;;13.80;12.68;;;12.50;81.00;;;;;;4885328;30;20052;-73
2021/09/07 02:53:29;;;;;;;13.52;12.43;;;12.50;80.50;;;;;;4887592;30;20073;-73
2021/09/07 02:56:04;;;;;;;14.02;12.82;;;12.50;80.40;;;;;;4885673;30;20056;-73
2021/09/07 02:58:36;;;;;;;14.10;12.73;;;12.40;80.20;;;;;;4887276;30;20121;-73
2021/09/07 03:01:08;;;;;;;14.00;12.70;;;12.40;79.70;;;;;;4899202;30;20052;-73
2021/09/07 03:03:41;;;;;;;13.23;12.10;;;12.40;79.90;;;;;;4887938;30;20458;-74
2021/09/07 03:06:16;;;;;;;13.48;12.27;;;12.30;79.70;;;;;;4885457;30;20582;-74
2021/09/07 03:08:48;;;;;;;13.98;12.77;;;12.40;80.40;;;;;;4882934;30;20057;-73
2021/09/07 03:11:20;;;;;;;13.73;12.43;;;12.30;80.10;;;;;;4888815;30;20689;-73
2021/09/07 03:13:52;;;;;;;13.32;12.23;;;12.40;79.60;;;;;;4890675;30;20079;-73
2021/09/07 03:16:25;;;;;;;13.85;12.55;;;12.40;79.80;;;;;;4888991;30;20097;-73
2021/09/07 03:18:57;;;;;;;13.60;12.45;;;12.40;80.30;;;;;;4889887;30;20072;-73
2021/09/07 03:21:29;;;;;;;13.10;12.00;;;12.40;79.90;;;;;;4889368;30;20104;-74
2021/09/07 03:24:02;;;;;;;13.32;12.05;;;12.40;80.40;;;;;;4889685;30;20072;-74
2021/09/07 03:26:34;;;;;;;13.13;12.02;;;12.30;82.10;;;;;;4888826;30;20060;-73
2021/09/07 03:29:07;;;;;;;13.65;12.45;;;12.30;82.00;;;;;;4889945;30;20068;-73
2021/09/07 03:31:40;;;;;;;13.93;12.73;;;12.30;80.70;;;;;;4888913;30;20424;-74
2021/09/07 03:34:13;;;;;;;13.43;12.23;;;12.30;81.10;;;;;;4889631;30;20060;-74
2021/09/07 03:36:45;;;;;;;14.02;12.73;;;12.20;81.40;;;;;;4888170;30;20044;-73
2021/09/07 03:39:17;;;;;;;14.30;12.88;;;12.20;81.70;;;;;;4890260;30;20057;-73
2021/09/07 03:41:49;;;;;;;14.43;13.15;;;12.20;81.20;;;;;;4888971;30;20044;-73
2021/09/07 03:44:22;;;;;;;15.18;12.95;;;12.20;80.80;;;;;;4889496;30;20049;-73
2021/09/07 03:46:56;;;;;;;13.93;12.52;;;12.20;81.50;;;;;;4903402;30;20549;-73
2021/09/07 03:49:29;;;;;;;13.52;12.38;;;12.20;81.90;;;;;;4887005;30;20044;-73
2021/09/07 03:52:01;;;;;;;13.43;12.23;;;12.20;82.70;;;;;;4889051;30;20130;-73
2021/09/07 03:54:34;;;;;;;13.90;12.52;;;12.30;82.20;;;;;;4889631;30;20125;-73
2021/09/07 03:57:06;;;;;;;13.18;12.07;;;12.20;83.80;;;;;;4887972;30;20138;-73
2021/09/07 03:59:38;;;;;;;13.50;12.30;;;12.20;84.50;;;;;;4888083;30;20135;-73
2021/09/07 04:02:10;;;;;;;13.90;12.70;;;12.20;84.70;;;;;;4902700;30;20053;-73
2021/09/07 04:04:44;;;;;;;13.75;12.50;;;12.30;84.30;;;;;;4888543;30;20051;-74
2021/09/07 04:07:17;;;;;;;13.20;12.00;;;12.20;82.60;;;;;;4902649;30;20051;-72
2021/09/07 04:09:50;;;;;;;14.38;12.25;;;12.10;82.60;;;;;;4888385;30;20055;-73
2021/09/07 04:12:24;;;;;;;13.65;12.40;;;12.00;83.40;;;;;;4887595;30;20071;-72
2021/09/07 04:14:56;;;;;;;13.15;11.85;;;12.10;84.80;;;;;;4887594;30;20560;-72
2021/09/07 04:17:28;;;;;;;12.77;11.68;;;12.10;85.20;;;;;;4884949;30;20140;-73
2021/09/07 04:20:00;;;;;;;12.93;11.73;;;12.10;85.40;;;;;;4887220;30;20141;-72
2021/09/07 04:22:32;;;;;;;12.95;11.80;;;12.10;83.70;;;;;;4888419;30;20052;-73
2021/09/07 04:25:05;;;;;;;12.85;11.75;;;12.00;83.10;;;;;;4888702;30;20053;-72
2021/09/07 04:27:38;;;;;;;13.90;12.18;;;12.00;82.70;;;;;;4888534;30;20667;-72
2021/09/07 04:30:11;;;;;;;12.85;11.75;;;12.00;82.60;;;;;;4889150;30;20127;-72
2021/09/07 04:32:43;;;;;;;13.52;12.18;;;12.00;82.60;;;;;;4886741;30;20059;-73
2021/09/07 04:35:16;;;;;;;12.63;11.48;;;12.00;82.10;;;;;;4887074;30;20731;-73
2021/09/07 04:37:48;;;;;;;13.52;12.23;;;12.00;82.20;;;;;;4886259;30;20051;-73
2021/09/07 04:40:20;;;;;;;12.93;11.82;;;12.00;81.80;;;;;;4888713;30;20533;-74
2021/09/07 04:42:52;;;;;;;12.40;11.25;;;12.00;81.70;;;;;;4887963;30;20057;-74
2021/09/07 04:45:25;;;;;;;12.55;11.45;;;12.00;81.30;;;;;;4886537;30;20064;-74
2021/09/07 04:47:57;;;;;;;12.13;11.10;;;12.00;81.50;;;;;;4884216;30;20052;-74
2021/09/07 04:50:31;;;;;;;12.40;11.30;;;12.00;82.00;;;;;;4886211;30;20049;-73
2021/09/07 04:53:03;;;;;;;12.50;11.10;;;12.00;82.80;;;;;;4887478;30;20514;-74
2021/09/07 04:55:35;;;;;;;12.32;11.13;;;12.00;82.80;;;;;;4899444;30;20055;-74
2021/09/07 04:58:07;;;;;;;12.15;11.05;;;12.00;82.50;;;;;;4886898;30;20072;-73
2021/09/07 05:00:39;;;;;;;12.27;11.18;;;12.00;82.30;;;;;;4887040;30;20450;-74
2021/09/07 05:03:11;;;;;;;13.27;11.93;;;12.00;82.60;;;;;;4886270;30;20057;-73
2021/09/07 05:05:43;;;;;;;12.02;10.80;;;12.00;83.90;;;;;;4886448;30;20148;-73
2021/09/07 05:08:15;;;;;;;11.90;10.90;;;12.00;83.20;;;;;;4887300;30;20056;-73
2021/09/07 05:10:47;;;;;;;11.18;10.18;;;12.00;82.50;;;;;;4886686;30;20669;-73
2021/09/07 05:13:19;;;;;;;12.48;11.15;;;12.10;83.00;;;;;;4885035;30;20144;-73
2021/09/07 05:15:51;;;;;;;12.48;11.18;;;12.10;82.90;;;;;;4887453;30;20518;-72
2021/09/07 05:18:23;;;;;;;11.70;10.70;;;12.00;82.80;;;;;;4885449;30;20049;-72
2021/09/07 05:20:55;;;;;;;12.82;10.70;;;12.00;82.80;;;;;;4885147;30;20052;-73
2021/09/07 05:23:27;;;;;;;12.43;11.27;;;12.00;82.90;;;;;;4886385;30;20080;-73
2021/09/07 05:25:59;;;;;;;13.05;11.77;;;12.00;82.80;;;;;;4884323;30;20088;-73
2021/09/07 05:28:31;;;;;;;11.65;10.55;;;12.10;82.30;;;;;;4886336;30;20064;-73
2021/09/07 05:31:18;;;;;;;11.93;10.73;;;12.20;81.60;;;;;;4885191;30;20540;-72
2021/09/07 05:33:50;;;;;;;11.82;10.65;;;12.30;82.40;;;;;;4885079;30;20056;-72
2021/09/07 05:36:22;;;;;;;12.07;10.98;;;12.30;82.90;;;;;;4883880;30;20155;-72
2021/09/07 05:38:54;;;;;;;11.63;10.52;;;12.40;82.10;;;;;;4869668;30;20084;-72
2021/09/07 05:41:25;;;;;;;12.55;11.27;;;12.50;82.00;;;;;;4882868;30;20087;-73
2021/09/07 05:43:57;;;;;;;12.65;11.38;;;12.60;81.80;;;;;;4883268;30;20080;-72
2021/09/07 05:46:29;;;;;;;12.10;11.00;;;12.70;81.30;;;;;;4885711;30;20147;-72
2021/09/07 05:49:01;;;;;;;12.20;11.10;;;12.80;81.00;;;;;;4886417;30;20584;-72
2021/09/07 05:51:33;;;;;;;12.43;11.32;;;12.90;80.80;;;;;;4885189;30;20135;-72
2021/09/07 05:54:05;;;;;;;12.77;11.43;;;13.00;80.80;;;;;;4887612;30;20061;-73
2021/09/07 05:56:37;;;;;;;12.38;11.18;;;13.10;80.70;;;;;;4884719;30;20055;-73
2021/09/07 05:59:09;;;;;;;11.77;10.77;;;13.20;80.30;;;;;;4885530;30;20129;-73
2021/09/07 06:01:41;;;;;;;13.50;12.27;;;13.30;80.00;;;;;;4885222;30;20079;-73
2021/09/07 06:04:13;;;;;;;13.02;11.65;;;13.50;80.60;;;;;;4886140;30;20091;-73
2021/09/07 06:06:45;;;;;;;12.75;11.55;;;13.70;80.40;;;;;;4883925;30;20056;-73
2021/09/07 06:09:16;;;;;;;12.85;11.65;;;13.80;80.20;;;;;;4887331;30;20052;-73
2021/09/07 06:11:48;;;;;;;13.18;11.88;;;13.90;79.90;;;;;;4885530;30;20135;-73
2021/09/07 06:14:20;;;;;;;12.90;11.77;;;14.10;79.80;;;;;;4887312;30;20056;-72
2021/09/07 06:16:52;;;;;;;12.65;11.55;;;14.20;79.70;;;;;;4883672;30;20972;-73
2021/09/07 06:19:25;;;;;;;13.52;12.32;;;14.20;79.40;;;;;;4884318;30;20057;-73
2021/09/07 06:21:57;;;;;;;13.52;12.32;;;14.30;79.40;;;;;;4885377;30;20167;-73
2021/09/07 06:24:29;;;;;;;13.13;11.95;;;14.30;79.40;;;;;;4884880;30;20052;-73
2021/09/07 06:27:01;;;;;;;12.63;11.52;;;14.40;79.40;;;;;;4879488;30;20064;-73
2021/09/07 06:29:33;;;;;;;13.27;12.02;;;14.40;79.50;;;;;;4887509;30;20053;-73
2021/09/07 06:32:05;;;;;;;12.88;11.77;;;14.50;79.50;;;;;;4885677;30;20059;-73
2021/09/07 06:34:37;;;;;;;13.30;12.10;;;14.50;79.40;;;;;;4886255;30;20132;-72
2021/09/07 06:37:09;;;;;;;12.82;11.73;;;14.60;79.60;;;;;;4881867;30;20156;-73
2021/09/07 06:39:41;;;;;;;13.30;12.10;;;14.70;79.60;;;;;;4886684;30;20141;-73
2021/09/07 06:42:13;;;;;;;13.10;12.00;;;14.80;80.10;;;;;;4885591;30;20619;-71
2021/09/07 06:44:45;;;;;;;13.75;12.35;;;15.00;79.80;;;;;;4887263;30;20628;-72
2021/09/07 06:47:16;;;;;;;13.15;12.00;;;15.10;79.70;;;;;;4889489;30;20052;-72
2021/09/07 06:49:48;;;;;;;14.43;12.95;;;15.10;79.60;;;;;;4890180;30;20127;-72
2021/09/07 06:52:21;;;;;;;13.85;12.40;;;15.30;79.40;;;;;;4888589;30;20131;-73
2021/09/07 06:54:53;;;;;;;12.55;11.43;;;15.40;78.90;;;;;;4888908;30;20110;-72
2021/09/07 06:57:28;;;;;;;12.23;11.13;;;15.40;79.10;;;;;;4888910;30;20079;-72
2021/09/07 07:00:03;;;;;;;13.18;11.82;;;15.40;78.20;;;;;;4889665;30;20052;-72
2021/09/07 07:02:40;;;;;;;12.82;11.60;;;15.30;79.20;;;;;;4890570;30;20152;-72
2021/09/07 07:05:12;;;;;;;12.80;11.57;;;15.30;79.30;;;;;;4888455;30;20057;-73
2021/09/07 07:07:44;;;;;;;13.20;11.95;;;15.40;80.20;;;;;;4889923;30;20135;-73
2021/09/07 07:10:16;;;;;;;12.98;11.77;;;15.50;80.90;;;;;;4888842;30;20056;-73
2021/09/07 07:12:48;;;;;;;15.23;11.60;;;15.70;79.10;;;;;;4890572;30;20049;-73
2021/09/07 07:15:20;;;;;;;13.02;11.93;;;15.80;78.10;;;;;;4888727;30;20146;-73
2021/09/07 07:17:52;;;;;;;12.55;11.45;;;15.80;78.10;;;;;;4888437;30;20441;-72
2021/09/07 07:20:24;;;;;;;12.73;11.65;;;15.80;78.70;;;;;;4889218;30;20122;-73
2021/09/07 07:22:56;;;;;;;12.00;11.00;;;15.80;78.70;;;;;;4890502;30;20056;-73
2021/09/07 07:25:28;;;;;;;13.23;12.13;;;15.90;78.80;;;;;;4888440;30;20337;-73
2021/09/07 07:28:00;;;;;;;12.90;11.75;;;16.00;78.80;;;;;;4889605;30;20164;-73
2021/09/07 07:30:34;;;;;;;12.60;11.50;;;16.00;79.20;;;;;;4888366;30;20045;-73
2021/09/07 07:33:06;;;;;;;13.55;12.35;;;16.00;78.70;;;;;;4890201;30;20829;-73
2021/09/07 07:35:38;;;;;;;13.18;11.93;;;16.20;78.90;;;;;;4888951;30;20053;-73
2021/09/07 07:38:10;;;;;;;13.32;12.13;;;16.50;78.30;;;;;;4888260;30;20048;-73
2021/09/07 07:40:44;;;;;;;13.82;12.63;;;16.80;78.60;;;;;;4901000;30;20572;-73
2021/09/07 07:43:17;;;;;;;14.13;12.20;;;16.90;78.00;;;;;;4889598;30;20805;-73
2021/09/07 07:45:49;;;;;;;13.30;12.10;;;17.00;77.90;;;;;;4883866;30;20080;-74
2021/09/07 07:48:22;;;;;;;13.07;11.77;;;17.00;77.30;;;;;;4888985;30;20048;-72
2021/09/07 07:50:53;;;;;;;13.05;11.95;;;17.00;77.30;;;;;;4887897;30;20621;-72
2021/09/07 07:53:25;;;;;;;14.23;12.77;;;17.20;77.20;;;;;;4890304;30;20062;-73
2021/09/07 07:55:57;;;;;;;12.98;11.88;;;17.20;76.30;;;;;;4886638;30;20343;-72
2021/09/07 07:58:30;;;;;;;13.00;11.77;;;17.30;76.60;;;;;;4890280;30;20044;-73
2021/09/07 08:01:03;;;;;;;13.18;12.00;;;17.30;76.30;;;;;;4889594;30;20526;-73
2021/09/07 08:03:35;;;;;;;13.18;12.02;;;17.40;76.50;;;;;;4890397;30;20091;-73
2021/09/07 08:06:07;;;;;;;14.00;12.60;;;17.60;75.40;;;;;;4888872;30;20063;-72
2021/09/07 08:08:39;;;;;;;13.50;12.40;;;17.70;75.60;;;;;;4889165;30;20052;-74
2021/09/07 08:11:11;;;;;;;14.23;12.98;;;17.80;75.20;;;;;;4888715;30;20124;-73
2021/09/07 08:13:43;;;;;;;13.25;12.15;;;17.90;74.50;;;;;;4887841;30;20591;-73
2021/09/07 08:16:15;;;;;;;13.15;12.15;;;17.90;72.30;;;;;;4886125;30;20617;-73
2021/09/07 08:18:49;;;;;;;12.63;11.52;;;18.00;71.50;;;;;;4889470;30;20073;-73
2021/09/07 08:21:21;;;;;;;11.88;10.75;;;18.00;72.10;;;;;;4886965;30;20052;-72
2021/09/07 08:23:53;;;;;;;12.93;11.82;;;18.00;69.60;;;;;;4889584;30;20059;-73
2021/09/07 08:26:25;;;;;;;12.73;11.68;;;18.00;71.80;;;;;;4887343;30;20053;-73
2021/09/07 08:28:57;;;;;;;12.35;11.25;;;18.00;73.10;;;;;;4888141;30;20080;-73
2021/09/07 08:31:29;;;;;;;13.30;12.20;;;18.00;71.00;;;;;;4887478;30;20056;-73
2021/09/07 08:34:01;;;;;;;13.77;12.40;;;18.10;71.60;;;;;;4886770;30;20136;-73
2021/09/07 08:36:33;;;;;;;13.60;12.50;;;18.40;73.20;;;;;;4887170;30;20134;-72
2021/09/07 08:39:05;;;;;;;13.55;12.40;;;18.60;72.80;;;;;;4901798;30;20067;-73
2021/09/07 08:41:37;;;;;;;12.93;11.93;;;18.70;69.90;;;;;;4888853;30;20056;-73
2021/09/07 08:44:08;;;;;;;13.35;12.35;;;18.90;67.80;;;;;;4888768;30;20148;-73
2021/09/07 08:46:40;;;;;;;13.05;11.85;;;19.00;73.60;;;;;;4886977;30;20092;-73
2021/09/07 08:49:18;;;;;;;13.52;12.32;;;19.00;70.40;;;;;;4888171;30;20079;-73
2021/09/07 08:51:50;;;;;;;13.77;12.35;;;18.90;71.30;;;;;;4886285;30;20052;-73
2021/09/07 08:54:22;;;;;;;13.48;12.27;;;18.80;72.20;;;;;;4888946;30;20141;-73
2021/09/07 08:56:54;;;;;;;12.60;11.60;;;18.70;72.80;;;;;;4887708;30;20067;-73
2021/09/07 08:59:26;;;;;;;12.38;11.27;;;18.70;73.20;;;;;;4888105;30;20071;-73
2021/09/07 09:02:14;;;;;;;12.73;11.63;;;18.80;72.10;;;;;;4887677;30;20056;-73
2021/09/07 09:04:50;;;;;;;13.10;11.90;;;18.90;72.40;;;;;;4885976;30;20057;-73
2021/09/07 09:07:25;;;;;;;13.98;12.68;;;19.10;69.10;;;;;;4885812;30;21060;-73
2021/09/07 09:09:59;;;;;;;13.85;12.65;;;19.20;70.40;;;;;;4888300;30;20048;-74
2021/09/07 09:12:41;;;;;;;14.30;12.75;;;19.40;70.90;;;;;;4886441;30;20106;-73
2021/09/07 09:15:20;;;;;;;14.45;13.25;;;19.60;68.10;;;;;;4887407;30;20056;-73
2021/09/07 09:17:53;;;;;;;14.35;13.10;;;19.70;70.60;;;;;;4901695;30;20066;-73
2021/09/07 09:20:25;;;;;;;14.23;13.02;;;19.90;71.50;;;;;;4888300;30;20471;-73
2021/09/07 09:22:58;;;;;;;14.68;13.48;;;20.10;69.20;;;;;;4885770;30;20191;-74
2021/09/07 09:25:35;;;;;;;14.73;13.52;;;20.20;70.20;;;;;;4886710;30;20083;-74
2021/09/07 09:28:18;;;;;;;16.45;15.05;;;20.30;66.10;;;;;;4887945;30;20084;-74
2021/09/07 09:30:51;;;;;;;15.15;13.85;;;20.40;66.30;;;;;;4887534;30;20064;-73
2021/09/07 09:33:28;;;;;;;15.63;14.32;;;20.50;69.40;;;;;;4887631;30;20124;-73
2021/09/07 09:36:02;;;;;;;15.13;13.93;;;20.60;66.40;;;;;;4872423;30;20440;-73
2021/09/07 09:38:35;;;;;;;15.13;13.93;;;20.70;67.90;;;;;;4888260;30;20581;-74
2021/09/07 09:41:09;;;;;;;14.63;13.43;;;20.80;66.20;;;;;;4900707;30;20595;-73
2021/09/07 09:43:44;;;;;;;15.25;13.98;;;20.90;67.90;;;;;;4888163;30;20144;-73
2021/09/07 09:46:25;;;;;;;15.20;14.00;;;21.00;67.00;;;;;;4900392;30;20059;-73
2021/09/07 09:49:14;;;;;;;15.20;13.85;;;21.00;65.60;;;;;;4902052;30;20536;-73
2021/09/07 09:51:48;;;;;;;16.30;15.00;;;21.10;67.10;;;;;;4886588;30;20958;-74
2021/09/07 09:54:30;;;;;;;15.93;14.02;;;21.20;67.10;;;;;;4893638;30;20052;-73
2021/09/07 09:57:04;;;;;;;15.43;13.82;;;21.30;67.10;;;;;;4886742;30;20139;-74
2021/09/07 09:59:36;;;;;;;15.43;14.13;;;21.30;66.90;;;;;;4887271;30;20526;-74
2021/09/07 10:02:08;;;;;;;15.95;14.43;;;21.40;67.90;;;;;;4886422;30;20623;-74
2021/09/07 10:04:40;;;;;;;15.98;14.68;;;21.50;67.60;;;;;;4887142;30;20749;-74
2021/09/07 10:07:14;;;;;;;15.45;13.90;;;21.60;67.80;;;;;;4885527;30;20560;-73
2021/09/07 10:09:48;;;;;;;15.45;14.10;;;21.70;65.70;;;;;;4886662;30;20489;-74
2021/09/07 10:12:38;;;;;;;15.30;14.00;;;21.80;67.50;;;;;;4886032;30;20601;-74
2021/09/07 10:18:41;;;;;;;15.43;14.23;;;22.00;66.60;;;;;;4885596;30;20044;-74
2021/09/07 10:26:44;;;;;;;16.08;14.77;;;22.10;63.70;;;;;;4887791;30;20681;-74
2021/09/07 10:29:39;;;;;;;16.67;15.25;;;22.10;64.30;;;;;;4898974;30;20061;-74
2021/09/07 10:32:21;;;;;;;15.98;14.68;;;22.20;64.80;;;;;;4886351;30;20143;-74
2021/09/07 10:35:08;;;;;;;16.77;15.27;;;22.30;64.00;;;;;;4885603;30;20152;-73
2021/09/07 10:38:10;;;;;;;17.10;15.70;;;22.30;62.90;;;;;;4886364;30;20056;-74
2021/09/07 10:40:47;;;;;;;16.45;15.25;;;22.50;63.20;;;;;;4884745;30;20492;-73
2021/09/07 10:43:51;;;;;;;16.65;15.32;;;22.50;63.00;;;;;;4887794;30;20160;-73
2021/09/07 10:46:41;;;;;;;18.55;17.05;;;22.50;63.00;;;;;;4884387;30;20088;-74
2021/09/07 10:49:40;;;;;;;17.88;16.40;;;22.70;63.00;;;;;;4886534;30;20416;-73
2021/09/07 10:52:29;;;;;;;17.00;15.70;;;22.80;64.10;;;;;;4887327;30;20061;-74
2021/09/07 10:55:06;;;;;;;17.48;16.10;;;22.80;63.40;;;;;;4887548;30;20871;-74
2021/09/07 10:57:41;;;;;;;;;;;22.90;63.10;;;;;;4880773;30;20053;-72
2021/09/07 11:00:21;;;;;;;17.45;16.15;;;22.90;61.10;;;;;;4884313;30;20012;-73
2021/09/07 11:02:54;;;;;;;;;;;23.00;62.80;;;;;;4885150;30;20060;-74
2021/09/07 11:05:27;;;;;;;17.25;15.85;;;23.00;62.10;;;;;;4883508;30;20425;-73
2021/09/07 11:08:02;;;;;;;17.20;15.90;;;23.10;59.50;;;;;;4884323;30;20060;-72
2021/09/07 11:10:47;;;;;;;16.83;15.52;;;23.10;60.00;;;;;;4884870;30;20075;-73
2021/09/07 11:13:25;;;;;;;18.25;16.60;;;23.10;58.40;;;;;;4884018;30;20482;-73
2021/09/07 11:16:03;;;;;;;16.98;15.57;;;23.20;61.70;;;;;;4884911;30;20627;-74
2021/09/07 11:18:35;;;;;;;17.40;16.05;;;23.30;61.60;;;;;;4885148;30;20424;-74
2021/09/07 11:21:07;;;;;;;17.30;15.80;;;23.40;59.50;;;;;;4883332;30;20053;-74
2021/09/07 11:23:39;;;;;;;16.50;15.30;;;23.40;59.30;;;;;;4887079;30;20060;-73
2021/09/07 11:26:14;;;;;;;17.15;15.85;;;23.40;57.50;;;;;;4882307;30;20118;-73
2021/09/07 11:28:48;;;;;;;17.23;15.93;;;23.50;59.40;;;;;;4883180;30;20524;-74
2021/09/07 11:31:20;;;;;;;16.92;15.63;;;23.50;59.40;;;;;;4886194;30;20052;-74
2021/09/07 11:33:53;;;;;;;17.00;15.70;;;23.50;57.20;;;;;;4890426;30;20531;-74
2021/09/07 11:36:25;;;;;;;17.05;15.55;;;23.60;57.70;;;;;;4887999;30;20129;-74
2021/09/07 11:38:59;;;;;;;16.55;15.20;;;23.70;56.80;;;;;;4887073;30;20617;-74
2021/09/07 11:41:31;;;;;;;16.63;15.43;;;23.70;59.00;;;;;;4889207;30;20049;-74
2021/09/07 11:44:03;;;;;;;16.90;15.45;;;23.70;57.80;;;;;;4886430;30;20060;-74
2021/09/07 11:46:38;;;;;;;16.83;15.52;;;23.80;56.90;;;;;;4889106;30;20593;-74
2021/09/07 11:49:12;;;;;;;17.20;15.93;;;23.90;58.50;;;;;;4886642;30;20061;-73
2021/09/07 11:51:46;;;;;;;16.85;15.55;;;23.90;57.00;;;;;;4887602;30;20163;-72
2021/09/07 11:54:19;;;;;;;17.05;15.55;;;24.00;58.70;;;;;;4889613;30;20637;-73
2021/09/07 11:56:56;;;;;;;17.33;15.93;;;24.00;54.50;;;;;;4886929;30;20048;-72
2021/09/07 11:59:27;;;;;;;17.02;15.73;;;24.00;55.50;;;;;;4887615;30;20126;-74
2021/09/07 12:02:09;;;;;;;17.50;16.13;;;24.20;56.70;;;;;;4888636;30;20137;-74
2021/09/07 12:04:56;;;;;;;17.25;15.95;;;24.20;56.40;;;;;;4887381;30;20049;-74
2021/09/07 12:07:28;;;;;;;16.60;15.38;;;24.10;54.40;;;;;;4887732;30;20076;-73
2021/09/07 12:10:06;;;;;;;16.58;15.38;;;24.10;53.90;;;;;;4887911;30;20048;-74
2021/09/07 12:12:39;;;;;;;17.33;15.93;;;24.10;56.40;;;;;;4887467;30;20052;-73
2021/09/07 12:15:16;;;;;;;17.00;15.70;;;24.20;55.40;;;;;;4883978;30;20152;-74
2021/09/07 12:17:48;;;;;;;17.10;15.50;;;24.20;53.30;;;;;;4887455;30;20053;-73
2021/09/07 12:20:20;;;;;;;17.92;16.40;;;24.30;54.00;;;;;;4887688;30;20765;-73
2021/09/07 12:22:51;;;;;;;16.77;15.48;;;24.40;52.70;;;;;;4885297;30;20076;-74
2021/09/07 12:25:23;;;;;;;17.17;15.77;;;24.30;52.20;;;;;;4886927;30;20114;-73
2021/09/07 12:27:59;;;;;;;16.80;15.40;;;24.30;51.20;;;;;;4886063;30;20053;-74
2021/09/07 12:30:33;;;;;;;17.95;16.52;;;24.30;52.20;;;;;;4885627;30;20074;-74
2021/09/07 12:33:09;;;;;;;16.90;15.48;;;24.30;52.40;;;;;;4884871;30;20428;-73
2021/09/07 12:35:50;;;;;;;16.92;15.70;;;24.30;54.70;;;;;;4887158;30;20471;-73
2021/09/07 12:38:26;;;;;;;17.23;15.93;;;24.30;53.60;;;;;;4885272;30;20132;-74
2021/09/07 12:41:02;;;;;;;17.35;15.98;;;24.30;54.80;;;;;;4886705;30;20048;-73
2021/09/07 12:43:40;;;;;;;17.30;16.00;;;24.40;54.20;;;;;;4884456;30;20587;-73
2021/09/07 12:46:15;;;;;;;17.52;16.20;;;24.50;53.30;;;;;;4886965;30;20056;-73
2021/09/07 12:48:49;;;;;;;17.75;16.45;;;24.60;53.40;;;;;;4889605;30;20051;-73
2021/09/07 12:51:22;;;;;;;17.55;16.10;;;24.60;51.30;;;;;;4886881;30;20056;-74
2021/09/07 12:53:58;;;;;;;17.77;16.13;;;24.60;53.10;;;;;;4889070;30;20105;-73
2021/09/07 12:56:31;;;;;;;17.40;16.02;;;24.70;52.40;;;;;;4886171;30;20667;-74
2021/09/07 12:59:05;;;;;;;17.15;15.75;;;24.70;50.50;;;;;;4887869;30;20491;-74
2021/09/07 13:01:37;;;;;;;17.15;15.73;;;24.60;48.70;;;;;;4886148;30;20480;-74
2021/09/07 13:04:09;;;;;;;16.98;15.68;;;24.60;52.30;;;;;;4885868;30;20424;-73
2021/09/07 13:06:41;;;;;;;17.42;15.95;;;24.60;49.20;;;;;;4886031;30;20048;-74
2021/09/07 13:09:13;;;;;;;16.50;15.30;;;24.70;49.90;;;;;;4887989;30;20057;-74